Terminal Aerodrome Forecast
Issued by NWS

Home | Current Version | Previous Version | Text Only | Print | Product List | Glossary On
Versions: 1 2 3 4 5 6 7 8 9 10 11 12 13 14 15 16 17
000
FTUS46 KMTR 221100
TAFOAK
TAF
KOAK 221134Z 2212/2318 26008KT P6SM FEW012 OVC040
      TEMPO 2212/2215 BKN012
     FM221700 24008KT P6SM BKN025
     FM222200 27015KT P6SM BKN025
     FM230300 27015KT P6SM BKN015
     FM230600 26010KT P6SM OVC010=

USA.gov is the U.S. government's official web portal to all federal, state and local government web resources and services.